createdAt,value
2018-06-22T00:00:17.223Z,98475.05
2018-06-22T00:02:46.512Z,98477.42
2018-06-22T00:05:15.754Z,98469.97
2018-06-22T00:07:44.988Z,98475.67
2018-06-22T00:10:14.010Z,98475.90
2018-06-22T00:12:43.294Z,98479.90
2018-06-22T00:15:12.658Z,98480.23
2018-06-22T00:17:41.903Z,98484.75
2018-06-22T00:20:11.163Z,98479.89
2018-06-22T00:22:40.372Z,98490.48
2018-06-22T00:25:09.585Z,98485.98
2018-06-22T00:27:38.823Z,98490.94
2018-06-22T00:30:08.062Z,98490.56
2018-06-22T00:32:37.280Z,98488.38
2018-06-22T00:35:06.843Z,98490.52
2018-06-22T00:37:36.048Z,98493.49
2018-06-22T00:40:05.306Z,98490.40
2018-06-22T00:42:34.543Z,98497.41
2018-06-22T00:45:03.798Z,98500.66
2018-06-22T00:47:32.994Z,98497.83
2018-06-22T00:50:02.301Z,98499.27
2018-06-22T00:52:31.502Z,98496.50
2018-06-22T00:55:00.754Z,98493.89
2018-06-22T00:57:29.973Z,98491.73
2018-06-22T00:59:59.172Z,98498.14
2018-06-22T01:02:28.881Z,98500.45
2018-06-22T01:04:58.143Z,98503.92
2018-06-22T01:07:27.420Z,98504.48
2018-06-22T01:09:56.704Z,98505.89
2018-06-22T01:12:26.019Z,98510.13
2018-06-22T01:14:55.097Z,98506.41
2018-06-22T01:17:24.419Z,98508.15
2018-06-22T01:19:53.706Z,98510.88
2018-06-22T01:22:23.122Z,98507.23
2018-06-22T01:24:52.357Z,98515.80
2018-06-22T01:27:21.761Z,98516.05
2018-06-22T01:29:51.026Z,98512.63
2018-06-22T01:32:20.456Z,98510.13
2018-06-22T01:34:49.815Z,98520.72
2018-06-22T01:37:19.236Z,98526.04
2018-06-22T01:39:50.822Z,98520.06
2018-06-22T01:42:20.225Z,98525.70
2018-06-22T01:44:49.583Z,98528.81
2018-06-22T01:47:18.961Z,98524.38
2018-06-22T01:49:48.236Z,98521.87
2018-06-22T01:52:17.603Z,98524.53
2018-06-22T01:54:46.843Z,98525.78
2018-06-22T01:57:16.124Z,98526.89
2018-06-22T01:59:45.406Z,98528.53
2018-06-22T02:02:14.691Z,98525.84
2018-06-22T02:04:43.948Z,98528.50
2018-06-22T02:07:13.221Z,98531.47
2018-06-22T02:09:42.468Z,98538.05
2018-06-22T02:12:11.758Z,98538.72
2018-06-22T02:14:42.655Z,98535.61
2018-06-22T02:17:11.971Z,98540.20
2018-06-22T02:19:41.469Z,98534.01
2018-06-22T02:22:10.738Z,98531.92
2018-06-22T02:24:40.079Z,98534.94
2018-06-22T02:27:09.368Z,98539.02
2018-06-22T02:29:38.687Z,98537.45
2018-06-22T02:32:07.958Z,98550.02
2018-06-22T02:34:37.231Z,98538.78
2018-06-22T02:37:06.534Z,98543.13
2018-06-22T02:39:35.801Z,98541.69
2018-06-22T02:42:05.103Z,98549.51
2018-06-22T02:44:34.117Z,98552.68
2018-06-22T02:47:03.442Z,98547.21
2018-06-22T02:49:32.690Z,98545.37
2018-06-22T02:52:01.946Z,98543.47
2018-06-22T02:54:31.226Z,98552.10
2018-06-22T02:57:00.495Z,98549.05
2018-06-22T02:59:29.747Z,98550.26
2018-06-22T03:01:59.171Z,98546.27
2018-06-22T03:04:28.437Z,98551.65
2018-06-22T03:06:57.697Z,98553.04
2018-06-22T03:09:27.003Z,98556.30
2018-06-22T03:11:56.262Z,98562.80
2018-06-22T03:14:25.485Z,98560.13
2018-06-22T03:16:54.466Z,98563.03
2018-06-22T03:19:23.684Z,98559.86
2018-06-22T03:21:53.599Z,98558.08
2018-06-22T03:24:22.810Z,98554.91
2018-06-22T03:26:52.034Z,98562.06
2018-06-22T03:29:21.282Z,98555.03
2018-06-22T03:31:50.541Z,98563.91
2018-06-22T03:34:19.835Z,98564.88
2018-06-22T03:36:49.107Z,98572.86
2018-06-22T03:39:18.365Z,98573.80
2018-06-22T03:41:47.538Z,98569.59
2018-06-22T03:44:16.716Z,98568.17
2018-06-22T03:46:45.898Z,98568.27
2018-06-22T03:49:15.099Z,98573.89
2018-06-22T03:51:44.285Z,98567.67
2018-06-22T03:54:13.509Z,98574.53
2018-06-22T03:56:42.865Z,98567.30
2018-06-22T03:59:12.070Z,98573.88
2018-06-22T04:01:41.127Z,98576.31
2018-06-22T04:04:10.371Z,98584.45
2018-06-22T04:06:39.615Z,98578.10
2018-06-22T04:09:08.960Z,98576.53
2018-06-22T04:11:38.531Z,98583.42
2018-06-22T04:14:07.759Z,98579.95
2018-06-22T04:16:38.043Z,98575.66
2018-06-22T04:19:07.323Z,98580.41
2018-06-22T04:21:36.602Z,98585.06
2018-06-22T04:24:05.922Z,98584.91
2018-06-22T04:26:35.156Z,98582.34
2018-06-22T04:29:04.387Z,98577.89
2018-06-22T04:31:33.650Z,98579.67
2018-06-22T04:34:02.882Z,98586.30
2018-06-22T04:36:32.014Z,98580.91
2018-06-22T04:39:01.291Z,98580.30
2018-06-22T04:41:31.028Z,98589.34
2018-06-22T04:44:00.307Z,98586.43
2018-06-22T04:46:29.516Z,98586.80
2018-06-22T04:48:58.816Z,98588.05
2018-06-22T04:51:28.371Z,98592.50
2018-06-22T04:53:57.588Z,98595.33
2018-06-22T04:56:26.885Z,98599.02
2018-06-22T04:58:55.883Z,98597.77
2018-06-22T05:01:25.159Z,98598.70
2018-06-22T05:03:54.392Z,98596.09
2018-06-22T05:06:23.587Z,98596.17
2018-06-22T05:08:52.807Z,98600.81
2018-06-22T05:11:22.075Z,98603.56
2018-06-22T05:13:51.053Z,98597.16
2018-06-22T05:16:20.282Z,98592.39
2018-06-22T05:18:49.521Z,98594.49
2018-06-22T05:21:18.792Z,98591.27
2018-06-22T05:23:48.058Z,98599.59
2018-06-22T05:26:17.279Z,98601.94
2018-06-22T05:28:46.476Z,98596.88
2018-06-22T05:31:15.684Z,98603.98
2018-06-22T05:33:44.943Z,98597.80
2018-06-22T05:36:14.135Z,98593.97
2018-06-22T05:38:43.344Z,98597.70
2018-06-22T05:41:12.586Z,98588.58
2018-06-22T05:43:41.834Z,98592.66
2018-06-22T05:46:11.039Z,98584.48
2018-06-22T05:48:40.279Z,98589.09
2018-06-22T05:51:09.502Z,98588.45
2018-06-22T05:53:38.783Z,98585.28
2018-06-22T05:56:07.980Z,98597.13
2018-06-22T05:58:37.278Z,98599.34
2018-06-22T06:01:06.542Z,98603.50
2018-06-22T06:03:35.978Z,98591.31
2018-06-22T06:06:05.249Z,98587.62
2018-06-22T06:08:34.469Z,98585.23
2018-06-22T06:11:03.735Z,98587.08
2018-06-22T06:13:32.992Z,98580.22
2018-06-22T06:16:02.279Z,98579.38
2018-06-22T06:18:31.499Z,98580.25
2018-06-22T06:21:00.741Z,98577.81
2018-06-22T06:23:29.943Z,98575.66
2018-06-22T06:25:59.175Z,98583.18
2018-06-22T06:28:28.832Z,98582.36
2018-06-22T06:30:58.390Z,98583.39
2018-06-22T06:33:27.639Z,98586.14
2018-06-22T06:35:56.862Z,98592.78
2018-06-22T06:38:26.102Z,98593.78
2018-06-22T06:40:56.926Z,98593.25
2018-06-22T06:43:26.131Z,98605.73
2018-06-22T06:45:55.393Z,98598.39
2018-06-22T06:48:24.659Z,98589.22
2018-06-22T06:50:53.870Z,98593.73
2018-06-22T06:53:23.055Z,98599.36
2018-06-22T06:55:52.354Z,98601.42
2018-06-22T06:58:21.661Z,98611.81
2018-06-22T07:00:51.064Z,98613.17
2018-06-22T07:03:20.478Z,98611.02
2018-06-22T07:05:49.786Z,98609.82
2018-06-22T07:08:19.197Z,98609.45
2018-06-22T07:10:48.518Z,98605.98
2018-06-22T07:13:17.770Z,98599.87
2018-06-22T07:15:47.149Z,98590.00
2018-06-22T07:18:16.562Z,98590.24
2018-06-22T07:20:45.898Z,98593.74
2018-06-22T07:23:15.227Z,98601.19
2018-06-22T07:25:44.563Z,98605.80
2018-06-22T07:28:16.846Z,98613.31
2018-06-22T07:30:46.120Z,98615.88
2018-06-22T07:33:15.363Z,98608.16
2018-06-22T07:35:44.679Z,98607.61
2018-06-22T07:38:14.021Z,98610.81
2018-06-22T07:40:43.935Z,98612.34
2018-06-22T07:43:13.337Z,98618.80
2018-06-22T07:45:42.610Z,98623.08
2018-06-22T07:48:11.890Z,98626.78
2018-06-22T07:50:41.286Z,98628.92
2018-06-22T07:53:10.596Z,98636.07
2018-06-22T07:55:39.962Z,98636.25
2018-06-22T07:58:09.266Z,98630.94
2018-06-22T08:00:38.587Z,98626.55
2018-06-22T08:03:07.901Z,98630.14
2018-06-22T08:05:37.147Z,98614.42
2018-06-22T08:08:06.666Z,98617.16
2018-06-22T08:10:37.147Z,98630.32
2018-06-22T08:13:06.530Z,98623.89
2018-06-22T08:15:36.047Z,98607.18
2018-06-22T08:18:08.560Z,98600.68
2018-06-22T08:20:37.950Z,98615.98
2018-06-22T08:23:07.429Z,98611.61
2018-06-22T08:25:37.387Z,98609.23
2018-06-22T08:28:06.843Z,98601.34
2018-06-22T08:30:35.990Z,98587.85
2018-06-22T08:33:05.665Z,98600.53
2018-06-22T08:35:35.095Z,98607.19
2018-06-22T08:38:04.941Z,98608.66
2018-06-22T08:40:34.338Z,98613.25
2018-06-22T08:43:03.497Z,98605.45
2018-06-22T08:45:33.020Z,98614.86
2018-06-22T08:48:02.393Z,98612.14
2018-06-22T08:50:31.835Z,98629.57
2018-06-22T08:53:01.560Z,98632.27
2018-06-22T08:55:30.866Z,98627.42
2018-06-22T08:58:00.240Z,98619.20
2018-06-22T09:00:29.610Z,98609.72
2018-06-22T09:02:58.947Z,98631.34
2018-06-22T09:05:28.415Z,98630.81
2018-06-22T09:07:57.889Z,98631.98
2018-06-22T09:10:28.303Z,98641.83
2018-06-22T09:12:57.740Z,98629.98
2018-06-22T09:15:27.150Z,98632.10
2018-06-22T09:17:56.651Z,98643.41
2018-06-22T09:20:26.122Z,98632.86
2018-06-22T09:22:55.515Z,98635.52
2018-06-22T09:25:24.838Z,98627.73
2018-06-22T09:27:54.247Z,98627.16
2018-06-22T09:30:23.571Z,98627.99
2018-06-22T09:32:52.899Z,98635.84
2018-06-22T09:35:22.208Z,98627.72
2018-06-22T09:37:51.566Z,98628.05
2018-06-22T09:40:20.920Z,98625.58
2018-06-22T09:42:50.277Z,98625.59
2018-06-22T09:45:19.534Z,98627.48
2018-06-22T09:47:48.918Z,98626.09
2018-06-22T09:50:17.957Z,98613.22
2018-06-22T09:52:47.170Z,98606.44
2018-06-22T09:55:16.532Z,98600.55
2018-06-22T09:57:45.706Z,98595.44
2018-06-22T10:00:14.688Z,98600.58
2018-06-22T10:02:44.019Z,98608.02
2018-06-22T10:05:13.290Z,98605.94
2018-06-22T10:07:42.787Z,98602.33
2018-06-22T10:10:11.992Z,98596.77
2018-06-22T10:12:41.322Z,98611.67
2018-06-22T10:15:10.617Z,98608.44
2018-06-22T10:17:39.889Z,98614.83
2018-06-22T10:20:09.283Z,98618.83
2018-06-22T10:22:38.546Z,98622.63
2018-06-22T10:25:07.890Z,98624.81
2018-06-22T10:27:37.191Z,98628.55
2018-06-22T10:30:06.621Z,98631.49
2018-06-22T10:32:35.867Z,98637.65
2018-06-22T10:35:05.198Z,98636.25
2018-06-22T10:37:34.516Z,98638.47
2018-06-22T10:40:03.984Z,98631.75
2018-06-22T10:42:33.253Z,98626.92
2018-06-22T10:45:02.404Z,98633.09
2018-06-22T10:47:31.930Z,98635.53
2018-06-22T10:50:01.318Z,98630.97
2018-06-22T10:52:30.625Z,98620.98
2018-06-22T10:55:00.026Z,98624.22
2018-06-22T10:57:29.316Z,98609.75
2018-06-22T10:59:58.932Z,98619.08
2018-06-22T11:02:28.316Z,98629.02
2018-06-22T11:04:57.417Z,98614.97
2018-06-22T11:07:26.678Z,98616.88
2018-06-22T11:09:56.044Z,98620.66
2018-06-22T11:12:25.334Z,98624.42
2018-06-22T11:14:54.670Z,98630.64
2018-06-22T11:17:24.015Z,98623.02
2018-06-22T11:19:53.271Z,98615.06
2018-06-22T11:22:22.358Z,98623.18
2018-06-22T11:24:51.790Z,98609.52
2018-06-22T11:27:21.111Z,98613.86
2018-06-22T11:29:50.444Z,98614.30
2018-06-22T11:32:19.963Z,98612.52
2018-06-22T11:34:49.272Z,98614.78
2018-06-22T11:37:19.028Z,98611.80
2018-06-22T11:39:48.483Z,98606.40
2018-06-22T11:42:17.788Z,98605.10
2018-06-22T11:44:47.063Z,98611.59
2018-06-22T11:47:16.369Z,98608.87
2018-06-22T11:49:45.699Z,98602.98
2018-06-22T11:52:15.055Z,98598.86
2018-06-22T11:54:44.578Z,98602.22
2018-06-22T11:57:13.754Z,98602.05
2018-06-22T11:59:43.188Z,98601.36
2018-06-22T12:02:12.532Z,98604.55
2018-06-22T12:04:42.112Z,98600.49
2018-06-22T12:07:11.607Z,98603.88
2018-06-22T12:09:41.253Z,98599.38
2018-06-22T12:12:10.615Z,98606.88
2018-06-22T12:14:39.926Z,98604.09
2018-06-22T12:17:09.233Z,98605.02
2018-06-22T12:19:38.642Z,98616.98
2018-06-22T12:22:07.983Z,98608.31
2018-06-22T12:24:37.244Z,98608.88
2018-06-22T12:27:06.535Z,98613.70
2018-06-22T12:29:35.940Z,98611.83
2018-06-22T12:32:05.411Z,98608.09
2018-06-22T12:34:34.571Z,98596.75
2018-06-22T12:37:03.943Z,98605.95
2018-06-22T12:39:33.167Z,98600.02
2018-06-22T12:42:02.681Z,98604.71
2018-06-22T12:44:32.237Z,98605.81
2018-06-22T12:47:01.890Z,98606.20
2018-06-22T12:49:31.369Z,98604.81
2018-06-22T12:52:00.705Z,98609.09
2018-06-22T12:54:30.188Z,98608.18
2018-06-22T12:56:59.546Z,98606.56
2018-06-22T12:59:28.922Z,98602.05
2018-06-22T13:01:58.323Z,98609.56
2018-06-22T13:04:27.646Z,98608.83
2018-06-22T13:06:57.122Z,98610.39
2018-06-22T13:09:26.225Z,98615.05
2018-06-22T13:11:55.600Z,98609.59
2018-06-22T13:14:24.951Z,98600.74
2018-06-22T13:16:54.307Z,98607.27
2018-06-22T13:19:23.664Z,98608.92
2018-06-22T13:21:53.894Z,98624.78
2018-06-22T13:24:24.336Z,98613.42
2018-06-22T13:26:53.688Z,98617.20
2018-06-22T13:29:23.035Z,98613.69
2018-06-22T13:31:52.499Z,98608.78
2018-06-22T13:34:21.757Z,98612.36
2018-06-22T13:36:51.149Z,98608.87
2018-06-22T13:39:20.610Z,98614.30
2018-06-22T13:41:50.116Z,98610.26
2018-06-22T13:44:19.651Z,98616.44
2018-06-22T13:46:48.990Z,98615.91
2018-06-22T13:49:18.370Z,98611.59
2018-06-22T13:51:47.767Z,98609.20
2018-06-22T13:54:17.132Z,98612.67
2018-06-22T13:56:46.535Z,98614.24
2018-06-22T13:59:15.894Z,98618.53
2018-06-22T14:01:46.197Z,98613.03
2018-06-22T14:04:20.632Z,98612.59
2018-06-22T14:06:56.404Z,98606.05
2018-06-22T14:09:25.813Z,98613.30
2018-06-22T14:11:55.052Z,98609.76
2018-06-22T14:14:24.363Z,98614.75
2018-06-22T14:16:53.832Z,98625.72
2018-06-22T14:19:23.240Z,98626.64
2018-06-22T14:21:52.621Z,98624.91
2018-06-22T14:24:22.195Z,98628.51
2018-06-22T14:26:51.545Z,98624.09
2018-06-22T14:29:20.958Z,98627.47
2018-06-22T14:31:50.339Z,98623.92
2018-06-22T14:34:19.829Z,98620.52
2018-06-22T14:36:49.326Z,98617.64
2018-06-22T14:39:19.193Z,98613.15
2018-06-22T14:41:48.639Z,98616.12
2018-06-22T14:44:17.942Z,98613.74
2018-06-22T14:46:47.192Z,98621.01
2018-06-22T14:49:16.532Z,98619.09
2018-06-22T14:51:57.803Z,98615.86
2018-06-22T14:54:32.567Z,98630.63
2018-06-22T14:57:07.083Z,98613.54
2018-06-22T14:59:41.502Z,98625.72
2018-06-22T15:02:16.565Z,98625.20
2018-06-22T15:04:51.210Z,98624.62
2018-06-22T15:07:25.767Z,98623.00
2018-06-22T15:09:55.140Z,98620.69
2018-06-22T15:12:24.473Z,98621.45
2018-06-22T15:14:53.755Z,98628.57
2018-06-22T15:17:22.864Z,98625.91
2018-06-22T15:19:52.356Z,98620.58
2018-06-22T15:22:21.743Z,98616.31
2018-06-22T15:24:51.147Z,98628.47
2018-06-22T15:27:20.596Z,98625.20
2018-06-22T15:29:50.007Z,98622.61
2018-06-22T15:32:19.441Z,98626.80
2018-06-22T15:36:56.568Z,98620.38
2018-06-22T15:39:31.403Z,98625.27
2018-06-22T15:42:06.026Z,98620.16
2018-06-22T15:44:40.433Z,98616.70
2018-06-22T15:47:15.036Z,98617.23
2018-06-22T15:49:49.562Z,98617.25
2018-06-22T15:52:23.930Z,98621.27
2018-06-22T15:54:58.429Z,98624.51
2018-06-22T15:57:27.683Z,98623.97
2018-06-22T15:59:57.328Z,98615.64
2018-06-22T16:03:30.539Z,98613.75
2018-06-22T16:06:00.369Z,98619.70
2018-06-22T16:08:29.606Z,98617.24
2018-06-22T16:10:58.890Z,98627.52
2018-06-22T16:13:28.145Z,98622.36
2018-06-22T16:16:02.658Z,98618.31
2018-06-22T16:18:37.298Z,98623.17
2018-06-22T16:21:11.753Z,98625.30
2018-06-22T16:23:46.087Z,98631.28
2018-06-22T16:26:20.577Z,98628.31
2018-06-22T16:28:49.714Z,98632.21
2018-06-22T16:31:19.007Z,98627.20
2018-06-22T16:33:56.541Z,98628.51
2018-06-22T16:36:27.015Z,98626.12
2018-06-22T16:38:56.451Z,98619.95
2018-06-22T16:41:25.720Z,98617.25
2018-06-22T16:43:54.963Z,98616.70
2018-06-22T16:46:24.262Z,98621.83
2018-06-22T16:48:53.435Z,98617.55
2018-06-22T16:51:22.702Z,98617.23
2018-06-22T16:53:51.986Z,98624.52
2018-06-22T16:56:22.079Z,98631.78
2018-06-22T16:58:51.026Z,98637.14
2018-06-22T17:01:20.390Z,98639.31
2018-06-22T17:03:49.609Z,98623.69
2018-06-22T17:06:18.900Z,98633.12
2018-06-22T17:08:53.382Z,98627.72
2018-06-22T17:11:27.771Z,98628.52
2018-06-22T17:14:02.203Z,98630.92
2018-06-22T17:16:36.955Z,98633.86
2018-06-22T17:19:06.241Z,98639.24
2018-06-22T17:21:35.544Z,98641.63
2018-06-22T17:24:04.770Z,98633.84
2018-06-22T17:26:34.039Z,98638.54
2018-06-22T17:29:03.372Z,98634.03
2018-06-22T17:31:32.619Z,98635.27
2018-06-22T17:34:01.898Z,98630.84
2018-06-22T17:36:31.163Z,98637.02
2018-06-22T17:39:00.486Z,98640.02
2018-06-22T17:41:29.827Z,98641.63
2018-06-22T17:43:59.161Z,98640.60
2018-06-22T17:46:28.539Z,98640.59
2018-06-22T17:48:57.800Z,98641.69
2018-06-22T17:51:27.102Z,98641.14
2018-06-22T17:53:56.412Z,98641.14
2018-06-22T17:56:30.907Z,98637.59
2018-06-22T17:59:05.583Z,98642.57
2018-06-22T18:01:40.097Z,98647.13
2018-06-22T18:04:14.692Z,98644.42
2018-06-22T18:06:49.059Z,98639.13
2018-06-22T18:09:23.888Z,98643.47
2018-06-22T18:11:58.613Z,98639.88
2018-06-22T18:14:27.996Z,98640.36
2018-06-22T18:16:57.367Z,98642.02
2018-06-22T18:19:26.736Z,98638.63
2018-06-22T18:21:56.179Z,98646.86
2018-06-22T18:24:25.623Z,98643.31
2018-06-22T18:26:54.960Z,98646.81
2018-06-22T18:29:24.217Z,98646.52
2018-06-22T18:31:53.542Z,98648.39
2018-06-22T18:34:22.929Z,98650.41
2018-06-22T18:36:52.226Z,98661.19
2018-06-22T18:39:21.756Z,98658.80
2018-06-22T18:41:51.032Z,98659.28
2018-06-22T18:44:20.398Z,98665.94
2018-06-22T18:46:49.773Z,98667.34
2018-06-22T18:49:19.204Z,98662.42
2018-06-22T18:51:52.607Z,98660.51
2018-06-22T18:54:27.131Z,98674.69
2018-06-22T18:57:01.794Z,98670.23
2018-06-22T18:59:36.337Z,98670.16
2018-06-22T19:02:10.839Z,98673.09
2018-06-22T19:04:40.369Z,98674.93
2018-06-22T19:07:09.839Z,98670.38
2018-06-22T19:09:39.183Z,98669.22
2018-06-22T19:12:08.506Z,98672.38
2018-06-22T19:14:37.931Z,98672.36
2018-06-22T19:17:07.308Z,98675.57
2018-06-22T19:19:36.601Z,98671.76
2018-06-22T19:22:05.914Z,98675.86
2018-06-22T19:24:35.169Z,98678.41
2018-06-22T19:27:04.481Z,98681.52
2018-06-22T19:29:33.754Z,98683.23
2018-06-22T19:32:03.008Z,98678.09
2018-06-22T19:34:37.501Z,98686.42
2018-06-22T19:37:07.020Z,98680.23
2018-06-22T19:39:36.313Z,98681.69
2018-06-22T19:42:05.628Z,98686.59
2018-06-22T19:44:40.072Z,98694.50
2018-06-22T19:47:14.628Z,98688.83
2018-06-22T19:49:49.294Z,98696.00
2018-06-22T19:52:23.915Z,98696.64
2018-06-22T19:54:53.401Z,98695.87
2018-06-22T19:57:22.614Z,98698.40
2018-06-22T19:59:51.907Z,98699.55
2018-06-22T20:02:21.200Z,98699.69
2018-06-22T20:04:50.487Z,98704.85
2018-06-22T20:07:19.876Z,98708.97
2018-06-22T20:09:49.148Z,98708.16
2018-06-22T20:12:18.374Z,98717.64
2018-06-22T20:14:47.677Z,98720.41
2018-06-22T20:17:17.039Z,98714.95
2018-06-22T20:19:46.632Z,98715.54
2018-06-22T20:22:15.945Z,98721.80
2018-06-22T20:24:50.684Z,98721.70
2018-06-22T20:27:20.058Z,98724.74
2018-06-22T20:29:49.414Z,98728.67
2018-06-22T20:32:18.855Z,98725.19
2018-06-22T20:34:53.482Z,98730.16
2018-06-22T20:37:28.159Z,98747.74
2018-06-22T20:40:02.651Z,98733.89
2018-06-22T20:42:37.158Z,98738.73
2018-06-22T20:45:11.965Z,98737.04
2018-06-22T20:47:46.420Z,98744.26
2018-06-22T20:50:20.833Z,98740.96
2018-06-22T20:52:50.115Z,98748.50
2018-06-22T20:55:19.457Z,98756.33
2018-06-22T20:57:48.819Z,98756.90
2018-06-22T21:00:18.121Z,98761.77
2018-06-22T21:02:47.376Z,98759.27
2018-06-22T21:05:16.713Z,98756.73
2018-06-22T21:07:46.080Z,98763.05
2018-06-22T21:10:15.393Z,98762.97
2018-06-22T21:12:44.730Z,98763.77
2018-06-22T21:15:13.968Z,98766.94
2018-06-22T21:17:43.290Z,98768.63
2018-06-22T21:20:13.514Z,98763.19
2018-06-22T21:22:42.945Z,98761.86
2018-06-22T21:25:12.237Z,98765.02
2018-06-22T21:27:46.742Z,98765.06
2018-06-22T21:30:21.105Z,98765.25
2018-06-22T21:32:55.658Z,98766.90
2018-06-22T21:35:30.300Z,98769.58
2018-06-22T21:38:05.314Z,98765.06
2018-06-22T21:40:34.665Z,98757.31
2018-06-22T21:43:04.022Z,98759.08
2018-06-22T21:45:33.356Z,98765.08
2018-06-22T21:48:02.514Z,98772.13
2018-06-22T21:50:31.802Z,98771.53
2018-06-22T21:53:01.133Z,98771.33
2018-06-22T21:55:30.430Z,98769.18
2018-06-22T21:57:59.845Z,98763.03
2018-06-22T22:00:32.805Z,98758.37
2018-06-22T22:03:02.778Z,98762.41
2018-06-22T22:05:32.361Z,98764.00
2018-06-22T22:08:01.732Z,98766.55
2018-06-22T22:10:36.465Z,98764.25
2018-06-22T22:13:05.890Z,98766.97
2018-06-22T22:15:35.320Z,98762.98
2018-06-22T22:18:04.661Z,98765.79
2018-06-22T22:20:34.016Z,98762.55
2018-06-22T22:23:03.320Z,98756.92
2018-06-22T22:25:32.610Z,98763.73
2018-06-22T22:28:01.893Z,98764.33
2018-06-22T22:30:31.152Z,98757.38
2018-06-22T22:33:00.462Z,98752.77
2018-06-22T22:35:29.737Z,98757.52
2018-06-22T22:37:59.185Z,98754.79
2018-06-22T22:40:28.494Z,98757.36
2018-06-22T22:42:57.777Z,98753.22
2018-06-22T22:45:27.054Z,98754.27
2018-06-22T22:47:56.317Z,98750.55
2018-06-22T22:50:25.599Z,98748.13
2018-06-22T22:52:55.020Z,98751.88
2018-06-22T22:55:24.883Z,98750.86
2018-06-22T22:57:54.818Z,98752.69
2018-06-22T23:00:24.148Z,98753.73
2018-06-22T23:02:53.416Z,98755.96
2018-06-22T23:05:22.735Z,98754.77
2018-06-22T23:07:52.007Z,98749.00
2018-06-22T23:10:21.339Z,98752.32
2018-06-22T23:12:50.671Z,98746.63
2018-06-22T23:15:20.032Z,98746.88
2018-06-22T23:17:49.370Z,98747.45
2018-06-22T23:20:18.745Z,98741.55
2018-06-22T23:23:05.115Z,98742.41
2018-06-22T23:25:34.451Z,98741.06
2018-06-22T23:28:03.743Z,98731.30
2018-06-22T23:30:33.063Z,98740.04
2018-06-22T23:33:02.316Z,98741.81
2018-06-22T23:35:31.626Z,98734.19
2018-06-22T23:38:01.059Z,98737.01
2018-06-22T23:40:30.388Z,98735.82
2018-06-22T23:42:59.627Z,98731.59
2018-06-22T23:45:28.923Z,98729.97
2018-06-22T23:47:58.500Z,98723.70
2018-06-22T23:50:27.786Z,98733.67
2018-06-22T23:52:57.087Z,98731.73
2018-06-22T23:55:26.379Z,98732.92
2018-06-22T23:57:55.660Z,98727.02
